KBFM

Mobile Downtown Airport

Mobile, Alabama, USA
METAR KBFM 231005Z 06003KT 3/4SM BR VV004 18/18 A3030 RMK AO2 T01830183
Observed Flight Rules
Feb-23 @ 10:05 UTC (18 minutes ago) Instrument Flight Rules
Wind Visibility Clouds Conditions
60° at 3 knots 3/4 miles
  • Vertical visibility at 400' AGL
  • Mist
Temperatures Readings
Current 18°C / 64°F
Dewpoint 18°C / 64°F
Humidity 100%
Altimeter 30.3" Hg
Pressure 1026 hPa
Elevation 20
METAR KBFM 231005Z 06003KT 3/4SM BR VV004 18/18 A3030 RMK AO2 T01830183
Observed Flight Rules
Feb-23 @ 10:05 UTC
(18 minutes ago)
LIFR
Wind Visibility
60° at 3 knots 3/4 miles
Clouds
  • Vertical visibility at 400' AGL
Conditions
  • Mist
Temperature Dewpoint
18°C / 64°F 18°C / 64°F
Humidity Altimeter Pressure
100% 30.3" Hg 1026 hPa